HOURLY OBS INDEX

018

Western Agricultural

CEDUNA AMO

Site: 018012
Alt: 15.3m
2km E of CEDUNA


  Time     Wind        Temp  DP   Baro     Rain since   Rain past  Vis(m), Cloud(base in m), Weather
  local        km/h                         9am  last   hr   10m    
Wed 14:30  WSW 26/ 35  16.8  8.0  1022.6    0.0   0.0   0.0   0.0   10000 
Wed 15:00  WSW 28/ 37  16.0  9.0  1022.8    0.0   0.0   0.0   0.0   10000|BR1350 
Wed 15:30  WSW 24/ 32  15.6  9.3  1022.9    0.0   0.0   0.0   0.0   10000|SC1170 SC1380 
Wed 16:00   SW 26/ 35  16.5  9.0  1023.0    0.0   0.0   0.0   0.0   10000|BR1380 
Wed 16:30  WSW 22/ 28  16.2  8.9  1023.1    0.0   0.0   0.0   0.0   10000|SC1320 
Wed 17:00  WSW 24/ 32  16.1  8.8  1023.1    0.0   0.0   0.0   0.0   10000|SC1320 
Wed 17:30  WSW 22/ 30  15.3  9.0  1023.3    0.0   0.0   0.0   0.0   10000|SC1320 
Wed 18:00  WSW 19/ 24  14.5  8.7  1023.3    0.0   0.0   0.0   0.0   10000 
Wed 18:30  WSW 15/ 19  13.6  8.4  1023.5    0.0   0.0   0.0   0.0   10000 
Wed 19:00  WSW 13/ 17  13.5  8.8  1023.8    0.0   0.0   0.0   0.0   10000|BR 930 
Wed 19:30  WSW 11/ 13  12.5  8.6  1024.0    0.0   0.0   0.0   0.0   10000|SC 870 
Wed 20:00  WSW 11/ 13  12.1  8.6  1024.2    0.0   0.0   0.0   0.0   10000 

CLEVE AERODROME

Site: 018116
Alt: 175.0m
125km SW of WHYALLA


  Time     Wind        Temp  DP   Baro     Rain since   Rain past  Vis(m), Cloud(base in m), Weather
  local        km/h                         9am  last   hr   10m    
Wed 14:30    W 28/ 39 --------  1020.0    0.0   0.0   0.0   0.0   ----- 
Wed 15:00  WSW 24/ 35 --------  1020.2    0.0   0.0   0.0   0.0   ----- 
Wed 15:30  WSW 24/ 32 --------  1020.1    0.0   0.0   0.0   0.0   ----- 
Wed 16:00  WSW 22/ 33 --------  1020.2    0.0   0.0   0.0   0.0   ----- 
Wed 16:30  WSW 24/ 30 --------  1020.2    0.0   0.0   0.0   0.0   ----- 
Wed 17:00  WSW 24/ 32  14.1  4.1  1020.2   ----  ----  ----   0.0   ----- 
Wed 17:30  WSW 24/ 32  13.7  4.8  1020.4   ----  ----  ----   0.0   ----- 
Wed 18:00  WSW 24/ 33  13.0  5.9  1020.8   ----  ----  ----   0.0   ----- 
Wed 18:30  WSW 20/ 26  11.8  6.1  1021.2   ----  ----  ----   0.0   ----- 
Wed 19:00    W 19/ 26  11.3  5.8  1021.5   ----  ----  ----   0.0   ----- 
Wed 19:30    W 17/ 22  10.5  5.9  1021.9   ----  ----  ----   0.0   ----- 
Wed 20:00    W 19/ 24  10.2  6.4  1022.1   ----  ----  ----   0.0   ----- 

COFFIN BAY (POINT AVOID)

Site: 018230
Alt: 35.0m
48km WNW of PORT LINCOLN


  Time     Wind        Temp  DP   Baro     Rain since   Rain past  Vis(m), Cloud(base in m), Weather
  local        km/h                         9am  last   hr   10m    
Wed 14:30  WSW 24/ 30  15.4  7.4  1019.8    0.0   0.0   0.0   0.0   ----- 
Wed 15:00  WSW 26/ 33  15.6  8.1  1019.9    0.0   0.0   0.0   0.0   ----- 
Wed 15:30    W 28/ 33  14.5  8.5  1019.8    0.0   0.0   0.0   0.0   ----- 
Wed 16:00    W 24/ 33  15.0  9.4  1019.9    0.0   0.0   0.0   0.0   ----- 
Wed 16:30    W 26/ 35  14.7  8.4  1019.9    0.0   0.0   0.0   0.0   ----- 
Wed 17:00    W 26/ 35  14.0  8.4  1019.9    0.0   0.0   0.0   0.0   ----- 
Wed 17:30    W 26/ 33  13.8  8.8  1020.1    0.0   0.0   0.0   0.0   ----- 
Wed 18:00  WSW 26/ 37  13.0  9.3  1020.5    0.0   0.0   0.0   0.0   ----- 
Wed 18:30    W 24/ 39  13.1  9.7  1020.6    0.0   0.0   0.0   0.0   ----- 
Wed 19:00    W 26/ 33  12.6 10.1  1020.9    0.0   0.0   0.0   0.0   ----- 
Wed 19:30    W 24/ 30  12.6 10.7  1021.0    0.0   0.0   0.0   0.0   ----- 
Wed 20:00  WSW 24/ 33  12.6 10.5  1021.2    0.0   0.0   0.0   0.0   ----- 

CULTANA (DEFENCE)

Site: 018229
Alt: 171 m
43km SW of PORT AUGUSTA


  Time     Wind        Temp  DP   Baro     Rain since   Rain past  Vis(m), Cloud(base in m), Weather
  local        km/h                         9am  last   hr   10m    
Wed 14:30  WSW 26/ 35  17.5  1.1  ------    0.0   0.0   0.0   0.0   ----- 
Wed 15:00  WSW 26/ 39  18.8  1.3  ------    0.0   0.0   0.0   0.0   ----- 
Wed 15:30  WSW 30/ 39  17.6  1.6  ------    0.0   0.0   0.0   0.0   ----- 
Wed 16:00  SSE 17/ 24  16.0  2.8  ------    0.0   0.0   0.0   0.0   ----- 
Wed 16:30   SE 19/ 28  15.3  2.8  ------    0.0   0.0   0.0   0.0   ----- 
Wed 17:00   SE 20/ 24  14.7  2.9  ------    0.0   0.0   0.0   0.0   ----- 
Wed 17:30   SE 15/ 20  14.5  3.0  ------    0.0   0.0   0.0   0.0   ----- 
Wed 18:00   SE 15/ 19  13.9  3.4  ------    0.0   0.0   0.0   0.0   ----- 
Wed 18:30   SE 13/ 15  13.8  3.3  ------    0.0   0.0   0.0   0.0   ----- 
Wed 19:00   SE 11/ 15  13.4  3.5  ------    0.0   0.0   0.0   0.0   ----- 
Wed 19:30  SSE  7/  9  13.0  3.7  ------    0.0   0.0   0.0   0.0   ----- 
Wed 20:00   SE  7/  9  13.0  4.4  ------    0.0   0.0   0.0   0.0   ----- 

CUMMINS AERO

Site: 018217
Alt: 60.1m
54km NNW of PORT LINCOLN


  Time     Wind        Temp  DP   Baro     Rain since   Rain past  Vis(m), Cloud(base in m), Weather
  local        km/h                         9am  last   hr   10m    
Wed 14:30    W 26/ 37  13.5  8.4  1020.6    0.0   0.0   0.0   0.0   ----- 
Wed 15:00    W 22/ 30  14.1  7.9  1020.5    0.0   0.0   0.0   0.0   ----- 
Wed 15:30    W 28/ 37  14.2  7.5  1020.3    0.0   0.0   0.0   0.0   ----- 
Wed 16:00    W 22/ 30  14.2  9.6  1020.4    0.0   0.0   0.0   0.0   ----- 
Wed 16:30    W 28/ 39  13.8  8.2  1020.5    0.0   0.0   0.0   0.0   ----- 
Wed 17:00    W 26/ 32  13.8  8.0  1020.5    0.0   0.0   0.0   0.0   ----- 
Wed 17:30    W 22/ 28  13.7  8.5  1020.8    0.0   0.0   0.0   0.0   ----- 
Wed 18:00    W 17/ 22  11.8  7.9  1021.2    0.0   0.0   0.0   0.0   ----- 
Wed 18:30    W 15/ 17  11.1  8.8  1021.4    0.0   0.0   0.0   0.0   ----- 
Wed 19:00    W 17/ 20  11.2  8.9  1021.6    0.0   0.0   0.0   0.0   ----- 
Wed 19:30  WNW 13/ 15  10.2  8.6  1021.8    0.0   0.0   0.0   0.0   ----- 
Wed 20:00   NW  9/ 11   9.1  8.0  1022.0    0.0   0.0   0.0   0.0   ----- 

MINNIPA PIRSA

Site: 018195
Alt: 165.0m
160km ESE of CEDUNA


  Time     Wind        Temp  DP   Baro     Rain since   Rain past  Vis(m), Cloud(base in m), Weather
  local        km/h                         9am  last   hr   10m    
Wed 14:30   SW 22/ 30  15.6  4.0  1021.6    0.2   0.0   0.0   0.0   ----- 
Wed 15:00  WSW 24/ 35  15.3  4.1  1021.8    0.2   0.0   0.0   0.0   ----- 
Wed 15:30   SW 24/ 37  15.3  4.1  1021.8    0.2   0.0   0.0   0.0   ----- 
Wed 16:00   SW 22/ 33  15.4  3.9  1022.0    0.2   0.0   0.0   0.0   ----- 
Wed 16:30  WSW 24/ 32  14.9  4.3  1022.0    0.2   0.0   0.0   0.0   ----- 
Wed 17:00  WSW 24/ 33  14.1  4.1  1022.2    0.2   0.0   0.0   0.0   ----- 
Wed 17:30  WSW 20/ 28  14.1  4.7  1022.5    0.2   0.0   0.0   0.0   ----- 
Wed 18:00  WSW 19/ 26  13.5  4.9  1022.7    0.2   0.0   0.0   0.0   ----- 
Wed 18:30   SW 19/ 24  12.8  5.7  1023.0    0.2   0.0   0.0   0.0   ----- 
Wed 19:00  WSW 19/ 26  12.4  6.2  1023.3    0.2   0.0   0.0   0.0   ----- 
Wed 19:30  WSW 15/ 20  11.2  5.5  1023.8    0.2   0.0   0.0   0.0   ----- 
Wed 20:00  WSW  9/ 11   9.9  5.1  1024.0    0.2   0.0   0.0   0.0   ----- 

NEPTUNE ISLAND

Site: 018115
Alt: 32.0m
72km SSE of PORT LINCOLN


  Time     Wind        Temp  DP   Baro     Rain since   Rain past  Vis(m), Cloud(base in m), Weather
  local        km/h                         9am  last   hr   10m    
Wed 14:30    W 41/ 48  14.5----  1018.4    0.0   0.0   0.0   0.0   ----- 
Wed 15:00    W 45/ 52  13.5----  1018.5    0.0   0.0   0.0   0.0   ----- 
Wed 15:30    W 35/ 48  13.4----  1018.3    0.0   0.0   0.0   0.0   ----- 
Wed 15:38    W 43/ 61  13.0----  1018.2    0.0   0.0  ----   0.0   ----- 
Wed 16:00    W 46/ 54  12.2----  1018.5    0.0   0.0   0.0   0.0   ----- 
Wed 16:30    W 41/ 50  12.6----  1018.3    0.0   0.0   0.0   0.0   ----- 
Wed 17:00    W 45/ 54  12.7----  1018.5    0.0   0.0   0.0   0.0   ----- 
Wed 17:30    W 46/ 52  13.2----  1018.6    0.0   0.0   0.0   0.0   ----- 
Wed 18:00    W 41/ 46  12.9----  1019.0    0.0   0.0   0.0   0.0   ----- 
Wed 18:30    W 39/ 46  13.0----  1019.3    0.0   0.0   0.0   0.0   ----- 
Wed 19:00    W 41/ 48  13.0----  1019.5    0.0   0.0   0.0   0.0   ----- 
Wed 19:30    W 43/ 52  12.9----  1019.9    0.0   0.0   0.0   0.0   ----- 
Wed 20:00    W 41/ 54  12.7----  1020.1    0.0   0.0   0.0   0.0   ----- 

NORTH SHIELDS (PORT LINCOLN AWS)

Site: 018192
Alt: 8.5m
14km N of PORT LINCOLN


  Time     Wind        Temp  DP   Baro     Rain since   Rain past  Vis(m), Cloud(base in m), Weather
  local        km/h                         9am  last   hr   10m    
Wed 14:30    W 28/ 35  15.1  8.1  1019.8    0.0   0.0   0.0   0.0   10000|SC1020 BR1350 
Wed 15:00    W 30/ 35  14.9  7.0  1019.9    0.0   0.0   0.0   0.0   10000|BR1260 OC1410 
Wed 15:30    W 28/ 35  14.4  7.7  1019.9    0.0   0.0   0.0   0.0   10000|SC 990 BR1260 OC1470 
Wed 16:00    W 26/ 35  15.3  6.8  1019.8    0.0   0.0   0.0   0.0   10000|OC1380 
Wed 16:30    W 24/ 35  14.7  8.2  1019.8    0.0   0.0   0.0   0.0   10000|SC1050 SC1290 BR1470 
Wed 17:00    W 28/ 39  13.7  8.1  1020.0    0.0   0.0   0.0   0.0   10000|BR1050 BR1350 
Wed 17:30    W 24/ 32  13.4  8.3  1020.3    0.0   0.0   0.0   0.0   10000|SC1050 BR1980 
Wed 18:00    W 22/ 30  12.8  8.1  1020.6    0.0   0.0   0.0   0.0   10000|BR 990 
Wed 18:30    W 19/ 26  12.1  8.0  1020.8    0.0   0.0   0.0   0.0   10000|SC 990 SC1800 
Wed 19:00    W 19/ 30  11.6  9.3  1021.3    0.0   0.0   0.0   0.0    5000|SC 930 SC1140 
Wed 19:19    W 13/ 17  10.9  9.3  1021.3    0.0   0.0  ----   0.0   10000|SC 870 SC1260 OC1620 
Wed 19:30  WSW 11/ 15  11.1  9.7  1021.5    0.0   0.0   0.0   0.0   10000|SC 780 BR 990 BR1200 
Wed 19:41   SW 11/ 15  11.2 10.0  1021.7    0.2   0.2  ----   0.2    5000|SC 450 SC 720 BR 990 
Wed 19:57    W 15/ 24  11.2 10.0  1021.7    0.2   0.0  ----   0.0   10000|SC 450 SC 720 BR 900 
Wed 20:00    W 19/ 24  11.1  9.9  1021.7    0.2   0.0   0.2   0.0    7000|SC 450 SC 720 BR1020 

NULLARBOR

Site: 018106
Alt: 64.0m
193km E of EUCLA (WA)


  Time     Wind        Temp  DP   Baro     Rain since   Rain past  Vis(m), Cloud(base in m), Weather
  local        km/h                         9am  last   hr   10m    
Wed 14:30   SW 24/ 33  17.2  8.9  1024.1    0.0   0.0   0.0   0.0   10000 
Wed 15:00  SSW 24/ 37  17.4  8.8  1023.9    0.0   0.0   0.0   0.0   10000 
Wed 15:30   SW 24/ 32  17.4  8.3  1024.1    0.0   0.0   0.0   0.0   10000 
Wed 16:00  SSW 22/ 32  17.3  9.0  1024.0    0.0   0.0   0.0   0.0   10000 
Wed 16:30   SW 22/ 32  17.0  9.2  1024.0    0.0   0.0   0.0   0.0   10000 
Wed 17:00  SSW 22/ 32  16.7  9.6  1024.0    0.0   0.0   0.0   0.0   10000 
Wed 17:30  SSW 24/ 32  16.2  9.6  1024.3    0.0   0.0   0.0   0.0   10000 
Wed 18:00  SSW 22/ 28  15.2  9.6  1024.6    0.0   0.0   0.0   0.0   10000 
Wed 18:30  SSW 20/ 28  14.3  9.5  1024.8    0.0   0.0   0.0   0.0   10000 
Wed 19:00   SW 15/ 19  13.3  9.5  1024.9    0.0   0.0   0.0   0.0   10000 
Wed 19:30   SW 11/ 13  12.4 10.0  1025.2    0.0   0.0   0.0   0.0   10000 
Wed 20:00   SW 11/ 13  11.4  9.5  1025.5    0.0   0.0   0.0   0.0   10000 

PORT AUGUSTA AERO

Site: 018201
Alt: 14.0m
6km WSW of PORT AUGUSTA


  Time     Wind        Temp  DP   Baro     Rain since   Rain past  Vis(m), Cloud(base in m), Weather
  local        km/h                         9am  last   hr   10m    
Wed 14:30  ESE 17/ 26  17.6  2.0  1019.4    0.0   0.0   0.0   0.0   10000|BR2070 
Wed 15:00   SE 22/ 32  17.1  1.9  1019.4    0.0   0.0   0.0   0.0   10000|BR2130 
Wed 15:30   SE 26/ 35  16.0  2.8  1019.3    0.0   0.0   0.0   0.0   10000 
Wed 16:00   SE 32/ 39  15.8  3.3  1019.4    0.0   0.0   0.0   0.0   10000|OC2190 
Wed 16:30   SE 24/ 35  15.4  3.9  1019.7    0.0   0.0   0.0   0.0   10000|OC2190 
Wed 17:00   SE 22/ 28  15.3  3.5  1020.0    0.0   0.0   0.0   0.0   10000|OC2190 
Wed 17:30  SSE 30/ 37  15.1  2.6  1020.1    0.0   0.0   0.0   0.0   10000|OC2190 
Wed 18:00  SSE 22/ 28  14.5  2.7  1020.3    0.0   0.0   0.0   0.0   10000|BR2190 
Wed 18:30   SE 20/ 24  13.8  4.9  1020.6    0.0   0.0   0.0   0.0   10000 
Wed 19:00   SE 20/ 24  13.5  5.9  1021.0    0.0   0.0   0.0   0.0   10000|SC2040 
Wed 19:30   SE 15/ 20  13.3  5.9  1021.4    0.0   0.0   0.0   0.0   10000|BR1980 
Wed 20:00   SE 19/ 24  13.8  5.9  1021.7    0.0   0.0   0.0   0.0   10000|OC1920 

WHYALLA AERO

Site: 018120
Alt: 9.3m
5km WSW of WHYALLA


  Time     Wind        Temp  DP   Baro     Rain since   Rain past  Vis(m), Cloud(base in m), Weather
  local        km/h                         9am  last   hr   10m    
Wed 14:30   SE 20/ 28  15.9  4.0  1020.0    0.0   0.0   0.0   0.0   10000|SC2130 
Wed 15:00   SE 20/ 28  14.8  4.5  1020.0    0.0   0.0   0.0   0.0   10000|BR2190 
Wed 15:30   SE 17/ 24  14.7  5.2  1020.3    0.0   0.0   0.0   0.0   10000|OC2190 
Wed 16:00  SSE 17/ 22  14.1  5.5  1020.3    0.0   0.0   0.0   0.0   10000|OC1950 
Wed 16:30  SSE 15/ 20  14.1  5.5  1020.3    0.0   0.0   0.0   0.0   10000|BR1830 OC2370 
Wed 17:00  SSE 13/ 17  13.9  6.0  1020.4    0.0   0.0   0.0   0.0   10000|OC1710 OC2370 
Wed 17:30  SSE  9/ 13  13.6  6.9  1020.5    0.0   0.0   0.0   0.0   10000|SC1770 BR2160 
Wed 18:00  ESE  7/ 11  13.5  7.1  1020.8    0.0   0.0   0.0   0.0   10000|SC1620 OC2160 
Wed 18:30   SE  7/ 11  13.4  7.4  1021.0    0.0   0.0   0.0   0.0   10000|SC1560 OC2100 
Wed 19:00  SSE  7/ 11  13.1  8.0  1021.3    0.0   0.0   0.0   0.0   10000|SC1650 OC2040 
Wed 19:30  SSE  6/  7  12.5  7.6  1021.6    0.0   0.0   0.0   0.0   10000|BR1590 BR1980 
Wed 20:00    C  0/  0  12.2  7.3  1021.9    0.0   0.0   0.0   0.0   10000|SC1530 OC1920 

WUDINNA AERO

Site: 018083
Alt: 86.4m
191km N of PORT LINCOLN


  Time     Wind        Temp  DP   Baro     Rain since   Rain past  Vis(m), Cloud(base in m), Weather
  local        km/h                         9am  last   hr   10m    
Wed 14:30   SW 24/ 37  16.4  3.1  1021.1    0.0   0.0   0.0   0.0   ----- 
Wed 15:00   SW 32/ 45  16.4  4.1  1021.3    0.0   0.0   0.0   0.0   ----- 
Wed 15:30  WSW 28/ 39  17.5  3.8  1021.3    0.0   0.0   0.0   0.0   ----- 
Wed 16:00  SSW 30/ 37  15.4  4.2  1021.5    0.0   0.0   0.0   0.0   ----- 
Wed 16:30   SW 24/ 30  15.1  4.5  1021.6    0.0   0.0   0.0   0.0   ----- 
Wed 17:00   SW 24/ 32  14.9  5.7  1021.7    0.0   0.0   0.0   0.0   ----- 
Wed 17:30  WSW 26/ 32  14.1  5.5  1022.0    0.0   0.0   0.0   0.0   ----- 
Wed 18:00  WSW 20/ 28  13.7  6.1  1022.3    0.0   0.0   0.0   0.0   ----- 
Wed 18:30   SW 28/ 35  12.7  7.0  1022.7    0.0   0.0   0.0   0.0   ----- 
Wed 19:00  WSW 17/ 20  12.0  6.7  1022.9    0.0   0.0   0.0   0.0   ----- 
Wed 19:30  WSW 17/ 19  10.7  6.5  1023.2    0.0   0.0   0.0   0.0   ----- 
Wed 20:00    W 11/ 13   9.4  6.1  1023.5    0.0   0.0   0.0   0.0   -----